SWA7453 KSAN-KCOS
Flight info
| Callsign | SWA7453 |
|---|---|
| Flight time | N/A |
| Altitude | 41000 |
| Route | ZZOOO4 MTBAL LANCY J78 DRK FLG ALS DBRY5 |
| Aircraft | B738/M-SDE2E3FGHIRWXY/LB1 |
Departure
| Time | 2026-05-06 05:17 |
|---|---|
| Airport | San Diego International Airport (KSAN) |
Arrival
| Time | N/A |
|---|---|
| Airport | City of Colorado Springs Municipal Airport (KCOS) |
| Time | Latitude | Longitude | Altitude | Speed | Heading |
|---|---|---|---|---|---|
| 2026-05-06 04:51 | 32.73338 | -117.20467 | 25 ft | 0 kts | 102° |
| 2026-05-06 05:05 | 32.73340 | -117.20479 | 29 ft | 4 kts | 101° |
| 2026-05-06 05:05 | 32.73345 | -117.20510 | 27 ft | 4 kts | 94° |
| 2026-05-06 05:05 | 32.73344 | -117.20541 | 26 ft | 4 kts | 69° |
| 2026-05-06 05:05 | 32.73333 | -117.20558 | 24 ft | 1 kts | 2° |
| 2026-05-06 05:06 | 32.73332 | -117.20558 | 24 ft | 0 kts | 1° |
| 2026-05-06 05:10 | 32.73339 | -117.20558 | 27 ft | 6 kts | 1° |
| 2026-05-06 05:10 | 32.73426 | -117.20557 | 24 ft | 16 kts | 358° |
| 2026-05-06 05:11 | 32.73531 | -117.20482 | 20 ft | 22 kts | 51° |
| 2026-05-06 05:11 | 32.73580 | -117.20326 | 23 ft | 21 kts | 104° |
| 2026-05-06 05:11 | 32.73542 | -117.20163 | 27 ft | 21 kts | 106° |
| 2026-05-06 05:11 | 32.73498 | -117.19985 | 28 ft | 24 kts | 105° |
| 2026-05-06 05:12 | 32.73452 | -117.19790 | 26 ft | 26 kts | 106° |
| 2026-05-06 05:12 | 32.73401 | -117.19581 | 30 ft | 27 kts | 106° |
| 2026-05-06 05:12 | 32.73350 | -117.19366 | 25 ft | 28 kts | 106° |
| 2026-05-06 05:12 | 32.73296 | -117.19147 | 26 ft | 23 kts | 106° |
| 2026-05-06 05:13 | 32.73253 | -117.18969 | 27 ft | 22 kts | 106° |
| 2026-05-06 05:13 | 32.73211 | -117.18796 | 29 ft | 22 kts | 105° |
| 2026-05-06 05:13 | 32.73170 | -117.18627 | 29 ft | 22 kts | 106° |
| 2026-05-06 05:13 | 32.73124 | -117.18439 | 24 ft | 25 kts | 106° |
| 2026-05-06 05:14 | 32.73074 | -117.18230 | 22 ft | 28 kts | 106° |
| 2026-05-06 05:14 | 32.73017 | -117.17998 | 19 ft | 28 kts | 106° |
| 2026-05-06 05:14 | 32.72964 | -117.17776 | 18 ft | 28 kts | 106° |
| 2026-05-06 05:14 | 32.72956 | -117.17665 | 19 ft | 0 kts | 73° |
| 2026-05-06 05:15 | 32.72957 | -117.17658 | 20 ft | 3 kts | 73° |
| 2026-05-06 05:15 | 32.72987 | -117.17594 | 22 ft | 11 kts | 30° |
| 2026-05-06 05:16 | 32.73033 | -117.17639 | 21 ft | 19 kts | 289° |
| 2026-05-06 05:16 | 32.73079 | -117.17827 | 21 ft | 27 kts | 285° |
| 2026-05-06 05:16 | 32.73134 | -117.18055 | 21 ft | 28 kts | 287° |
| 2026-05-06 05:16 | 32.73146 | -117.18102 | 20 ft | 1 kts | 285° |
| 2026-05-06 05:17 | 32.73236 | -117.18475 | 25 ft | 104 kts | 286° |
| 2026-05-06 05:17 | 32.73525 | -117.19651 | 368 ft | 175 kts | 285° |
| 2026-05-06 05:17 | 32.73835 | -117.21144 | 1548 ft | 198 kts | 283° |
| 2026-05-06 05:17 | 32.74231 | -117.22793 | 2475 ft | 222 kts | 287° |
| 2026-05-06 05:18 | 32.74694 | -117.24604 | 3307 ft | 234 kts | 287° |
| 2026-05-06 05:18 | 32.75163 | -117.26480 | 4297 ft | 240 kts | 286° |
| 2026-05-06 05:18 | 32.75634 | -117.28405 | 5366 ft | 246 kts | 286° |
| 2026-05-06 05:18 | 32.76109 | -117.30359 | 6639 ft | 246 kts | 286° |
| 2026-05-06 05:19 | 32.76510 | -117.32353 | 7798 ft | 251 kts | 273° |
| 2026-05-06 05:19 | 32.76173 | -117.34368 | 8899 ft | 256 kts | 243° |
| 2026-05-06 05:19 | 32.75007 | -117.35962 | 10019 ft | 260 kts | 214° |
| 2026-05-06 05:19 | 32.73302 | -117.36697 | 11089 ft | 266 kts | 185° |
| 2026-05-06 05:20 | 32.71473 | -117.36374 | 12133 ft | 272 kts | 156° |
| 2026-05-06 05:20 | 32.69930 | -117.35058 | 13172 ft | 276 kts | 133° |
| 2026-05-06 05:20 | 32.68711 | -117.33269 | 14185 ft | 281 kts | 127° |
| 2026-05-06 05:20 | 32.67544 | -117.31378 | 15165 ft | 286 kts | 127° |
| 2026-05-06 05:21 | 32.66356 | -117.29495 | 16124 ft | 290 kts | 127° |
| 2026-05-06 05:21 | 32.65113 | -117.27579 | 17076 ft | 295 kts | 128° |
| 2026-05-06 05:21 | 32.63850 | -117.25643 | 17998 ft | 299 kts | 125° |
| 2026-05-06 05:21 | 32.62992 | -117.23373 | 18748 ft | 311 kts | 102° |
| 2026-05-06 05:22 | 32.62693 | -117.20722 | 18993 ft | 338 kts | 95° |
| 2026-05-06 05:22 | 32.62482 | -117.17824 | 19192 ft | 365 kts | 95° |
| 2026-05-06 05:22 | 32.62241 | -117.14761 | 19657 ft | 380 kts | 95° |
| 2026-05-06 05:22 | 32.62175 | -117.11606 | 20399 ft | 385 kts | 86° |
| 2026-05-06 05:23 | 32.62560 | -117.08446 | 21238 ft | 388 kts | 77° |
| 2026-05-06 05:23 | 32.63404 | -117.05402 | 22007 ft | 391 kts | 68° |
| 2026-05-06 05:23 | 32.65467 | -116.99374 | 23364 ft | 401 kts | 68° |
| 2026-05-06 05:24 | 32.66367 | -116.96225 | 24007 ft | 406 kts | 76° |
| 2026-05-06 05:24 | 32.66802 | -116.92894 | 24641 ft | 410 kts | 87° |
| 2026-05-06 05:24 | 32.66863 | -116.89491 | 25280 ft | 414 kts | 89° |
| 2026-05-06 05:24 | 32.66890 | -116.86058 | 25856 ft | 418 kts | 89° |
| 2026-05-06 05:25 | 32.66945 | -116.82579 | 26431 ft | 422 kts | 88° |
| 2026-05-06 05:25 | 32.67419 | -116.79143 | 26941 ft | 426 kts | 70° |
| 2026-05-06 05:25 | 32.68836 | -116.76042 | 27435 ft | 431 kts | 51° |
| 2026-05-06 05:25 | 32.70989 | -116.73566 | 27922 ft | 434 kts | 34° |
| 2026-05-06 05:26 | 32.73674 | -116.71913 | 28402 ft | 437 kts | 22° |
| 2026-05-06 05:26 | 32.76515 | -116.70541 | 28865 ft | 441 kts | 21° |
| 2026-05-06 05:26 | 32.79378 | -116.69210 | 29370 ft | 443 kts | 21° |
| 2026-05-06 05:26 | 32.82226 | -116.67880 | 29798 ft | 447 kts | 21° |
| 2026-05-06 05:27 | 32.85126 | -116.66499 | 30239 ft | 449 kts | 21° |
| 2026-05-06 05:27 | 32.88033 | -116.65092 | 30587 ft | 454 kts | 22° |
| 2026-05-06 05:27 | 32.90972 | -116.63652 | 30964 ft | 457 kts | 22° |
| 2026-05-06 05:27 | 32.93920 | -116.62201 | 31331 ft | 460 kts | 22° |
| 2026-05-06 05:28 | 32.96896 | -116.60736 | 31588 ft | 466 kts | 22° |
| 2026-05-06 05:28 | 32.99903 | -116.59257 | 31888 ft | 469 kts | 22° |
| 2026-05-06 05:28 | 33.01904 | -116.58268 | 32138 ft | 470 kts | 22° |
| 2026-05-06 05:28 | 33.04909 | -116.56730 | 32516 ft | 471 kts | 23° |
| 2026-05-06 05:29 | 33.07901 | -116.55160 | 32963 ft | 469 kts | 24° |
| 2026-05-06 05:29 | 33.10882 | -116.53585 | 33492 ft | 466 kts | 24° |
| 2026-05-06 05:29 | 33.13837 | -116.52024 | 34007 ft | 463 kts | 24° |
| 2026-05-06 05:29 | 33.16794 | -116.50467 | 34388 ft | 464 kts | 24° |
| 2026-05-06 05:30 | 33.19760 | -116.48910 | 34733 ft | 465 kts | 23° |
| 2026-05-06 05:30 | 33.22729 | -116.47353 | 35055 ft | 466 kts | 23° |
| 2026-05-06 05:30 | 33.25694 | -116.45799 | 35601 ft | 462 kts | 23° |
| 2026-05-06 05:30 | 33.28592 | -116.44278 | 36036 ft | 460 kts | 23° |
| 2026-05-06 05:31 | 33.31519 | -116.42740 | 36465 ft | 458 kts | 23° |
| 2026-05-06 05:31 | 33.34437 | -116.41207 | 36844 ft | 457 kts | 23° |
| 2026-05-06 05:31 | 33.37292 | -116.39531 | 37153 ft | 458 kts | 31° |
| 2026-05-06 05:31 | 33.39896 | -116.37311 | 37428 ft | 459 kts | 40° |
| 2026-05-06 05:32 | 33.42198 | -116.34648 | 37690 ft | 461 kts | 49° |
| 2026-05-06 05:32 | 33.44152 | -116.31582 | 37920 ft | 463 kts | 54° |
| 2026-05-06 05:32 | 33.46007 | -116.28413 | 38068 ft | 467 kts | 55° |
| 2026-05-06 05:32 | 33.47848 | -116.25223 | 38465 ft | 464 kts | 55° |
| 2026-05-06 05:33 | 33.49687 | -116.22060 | 38948 ft | 459 kts | 54° |
| 2026-05-06 05:33 | 33.51497 | -116.18986 | 39349 ft | 456 kts | 54° |
| 2026-05-06 05:33 | 33.53338 | -116.15889 | 39674 ft | 455 kts | 54° |
| 2026-05-06 05:33 | 33.55185 | -116.12794 | 39920 ft | 456 kts | 54° |
| 2026-05-06 05:34 | 33.57031 | -116.09700 | 40131 ft | 457 kts | 54° |
| 2026-05-06 05:34 | 33.58880 | -116.06594 | 40309 ft | 458 kts | 54° |
| 2026-05-06 05:34 | 33.60617 | -116.03376 | 40515 ft | 459 kts | 62° |
| 2026-05-06 05:34 | 33.61968 | -115.99901 | 40723 ft | 460 kts | 66° |
| 2026-05-06 05:35 | 33.63206 | -115.96354 | 40905 ft | 461 kts | 68° |
| 2026-05-06 05:35 | 33.64417 | -115.92782 | 40992 ft | 464 kts | 68° |
| 2026-05-06 05:35 | 33.66849 | -115.85613 | 41000 ft | 466 kts | 68° |
| 2026-05-06 05:36 | 33.69313 | -115.78465 | 40993 ft | 462 kts | 67° |
| 2026-05-06 05:36 | 33.71797 | -115.71325 | 41004 ft | 465 kts | 67° |
| 2026-05-06 05:37 | 33.74299 | -115.64136 | 41005 ft | 468 kts | 67° |
| 2026-05-06 05:37 | 33.76798 | -115.56937 | 40999 ft | 465 kts | 67° |
| 2026-05-06 05:38 | 33.79272 | -115.49790 | 41000 ft | 461 kts | 67° |
| 2026-05-06 05:38 | 33.81730 | -115.42670 | 41002 ft | 460 kts | 67° |
| 2026-05-06 05:39 | 33.84177 | -115.35570 | 40999 ft | 460 kts | 67° |
| 2026-05-06 05:39 | 33.86623 | -115.28454 | 40998 ft | 459 kts | 67° |
| 2026-05-06 05:40 | 33.89043 | -115.21396 | 41007 ft | 459 kts | 68° |
| 2026-05-06 05:40 | 33.90864 | -115.16076 | 41000 ft | 459 kts | 68° |
| 2026-05-06 05:41 | 33.93293 | -115.08968 | 40999 ft | 459 kts | 68° |
| 2026-05-06 05:41 | 33.95719 | -115.01851 | 41007 ft | 460 kts | 68° |
| 2026-05-06 05:42 | 33.98148 | -114.94709 | 41001 ft | 460 kts | 68° |
| 2026-05-06 05:42 | 34.00575 | -114.87556 | 41003 ft | 461 kts | 68° |
| 2026-05-06 05:43 | 34.02998 | -114.80400 | 41002 ft | 461 kts | 68° |
| 2026-05-06 05:43 | 34.05420 | -114.73229 | 40999 ft | 462 kts | 68° |
| 2026-05-06 05:44 | 34.07821 | -114.66104 | 40998 ft | 462 kts | 68° |
| 2026-05-06 05:44 | 34.10238 | -114.58917 | 41002 ft | 462 kts | 68° |
| 2026-05-06 05:45 | 34.12651 | -114.51722 | 41001 ft | 462 kts | 68° |
| 2026-05-06 05:45 | 34.15059 | -114.44527 | 41002 ft | 462 kts | 68° |
| 2026-05-06 05:46 | 34.17447 | -114.37376 | 41001 ft | 461 kts | 68° |
| 2026-05-06 05:46 | 34.19841 | -114.30191 | 41002 ft | 461 kts | 68° |
| 2026-05-06 05:47 | 34.22230 | -114.23001 | 41002 ft | 460 kts | 68° |
| 2026-05-06 05:47 | 34.24613 | -114.15816 | 40999 ft | 460 kts | 68° |
| 2026-05-06 05:48 | 34.26983 | -114.08621 | 40996 ft | 460 kts | 69° |
| 2026-05-06 05:48 | 34.29093 | -114.01306 | 41006 ft | 460 kts | 72° |
| 2026-05-06 05:49 | 34.31062 | -113.93993 | 41002 ft | 461 kts | 72° |
| 2026-05-06 05:49 | 34.33061 | -113.86611 | 41000 ft | 461 kts | 71° |
| 2026-05-06 05:50 | 34.35079 | -113.79240 | 40999 ft | 462 kts | 71° |
| 2026-05-06 05:50 | 34.37111 | -113.71839 | 41001 ft | 462 kts | 71° |
| 2026-05-06 05:51 | 34.39126 | -113.64483 | 41003 ft | 463 kts | 71° |
| 2026-05-06 05:51 | 34.41152 | -113.57067 | 41006 ft | 464 kts | 71° |
| 2026-05-06 05:52 | 34.43175 | -113.49636 | 40998 ft | 465 kts | 71° |
| 2026-05-06 05:52 | 34.45201 | -113.42176 | 40999 ft | 465 kts | 72° |
| 2026-05-06 05:53 | 34.46309 | -113.38087 | 41006 ft | 466 kts | 72° |
| 2026-05-06 05:55 | 34.46452 | -113.37560 | 41007 ft | 466 kts | 72° |
| 2026-05-06 05:55 | 34.56442 | -113.00414 | 41008 ft | 468 kts | 72° |
| 2026-05-06 05:56 | 34.64394 | -112.70467 | 40996 ft | 470 kts | 72° |
| 2026-05-06 05:56 | 34.73766 | -112.40914 | 41009 ft | 470 kts | 55° |
| 2026-05-06 05:57 | 34.88776 | -112.14781 | 41005 ft | 471 kts | 56° |
| 2026-05-06 05:57 | 35.03335 | -111.88212 | 40982 ft | 472 kts | 56° |
| 2026-05-06 05:58 | 35.17564 | -111.61208 | 41015 ft | 473 kts | 62° |
| 2026-05-06 05:58 | 35.44994 | -110.92118 | 41047 ft | 471 kts | 64° |
| 2026-05-06 05:59 | 36.24141 | -108.89537 | 40929 ft | 478 kts | 65° |
| 2026-05-06 05:59 | 36.58816 | -107.94340 | 41038 ft | 475 kts | 66° |
| 2026-05-06 05:59 | 36.92717 | -106.93185 | 41012 ft | 476 kts | 68° |
| 2026-05-06 06:00 | 37.06480 | -106.52424 | 40890 ft | 482 kts | 65° |
| 2026-05-06 06:00 | 37.09272 | -106.44851 | 40905 ft | 481 kts | 59° |
| 2026-05-06 06:01 | 37.11260 | -106.41529 | 41001 ft | 479 kts | 47° |
| 2026-05-06 06:01 | 37.13521 | -106.38466 | 41003 ft | 478 kts | 48° |
| 2026-05-06 06:02 | 37.15632 | -106.35241 | 41001 ft | 478 kts | 54° |
| 2026-05-06 06:02 | 37.17452 | -106.31756 | 40999 ft | 478 kts | 60° |
| 2026-05-06 06:03 | 37.19014 | -106.28066 | 40997 ft | 478 kts | 64° |
| 2026-05-06 06:03 | 37.20978 | -106.22576 | 41008 ft | 478 kts | 67° |
| 2026-05-06 06:04 | 37.21140 | -106.22096 | 41008 ft | 478 kts | 67° |
| 2026-05-06 06:04 | 37.21301 | -106.21618 | 41007 ft | 478 kts | 67° |
| 2026-05-06 06:05 | 37.21461 | -106.21138 | 41008 ft | 478 kts | 67° |
| 2026-05-06 06:05 | 37.21622 | -106.20656 | 41012 ft | 478 kts | 67° |
| 2026-05-06 06:06 | 37.21781 | -106.20175 | 41014 ft | 477 kts | 67° |
| 2026-05-06 06:06 | 37.21941 | -106.19693 | 40994 ft | 478 kts | 67° |
| 2026-05-06 06:07 | 37.22099 | -106.19216 | 41009 ft | 476 kts | 67° |
| 2026-05-06 06:07 | 37.24639 | -106.11573 | 41018 ft | 477 kts | 67° |
| 2026-05-06 06:08 | 37.27246 | -106.03923 | 41002 ft | 476 kts | 66° |
| 2026-05-06 06:08 | 37.29883 | -105.96257 | 40982 ft | 489 kts | 67° |
| 2026-05-06 06:09 | 37.32613 | -105.88300 | 40989 ft | 502 kts | 67° |
| 2026-05-06 06:09 | 37.35649 | -105.80287 | 40964 ft | 513 kts | 52° |
| 2026-05-06 06:10 | 37.40299 | -105.73409 | 40978 ft | 521 kts | 45° |
| 2026-05-06 06:10 | 37.45240 | -105.66595 | 40960 ft | 530 kts | 45° |
| 2026-05-06 06:11 | 37.50158 | -105.59647 | 40922 ft | 532 kts | 46° |
| 2026-05-06 06:11 | 37.55030 | -105.52605 | 40903 ft | 534 kts | 46° |
| 2026-05-06 06:12 | 37.59888 | -105.45536 | 40877 ft | 532 kts | 46° |
| 2026-05-06 06:12 | 37.64666 | -105.38578 | 40905 ft | 524 kts | 46° |
| 2026-05-06 06:13 | 37.69450 | -105.31609 | 40913 ft | 525 kts | 46° |
| 2026-05-06 06:13 | 37.74224 | -105.24643 | 40927 ft | 525 kts | 46° |
| 2026-05-06 06:14 | 37.86940 | -105.06009 | 41008 ft | 527 kts | 46° |
| 2026-05-06 06:14 | 37.94337 | -104.95118 | 39958 ft | 532 kts | 47° |
| 2026-05-06 06:14 | 38.03978 | -104.80869 | 37123 ft | 532 kts | 47° |
| 2026-05-06 06:15 | 38.13995 | -104.67092 | 33835 ft | 526 kts | 29° |
| 2026-05-06 06:15 | 38.27308 | -104.65014 | 30721 ft | 466 kts | 353° |
| 2026-05-06 06:15 | 38.39563 | -104.64686 | 29523 ft | 415 kts | 358° |
| 2026-05-06 06:15 | 38.50516 | -104.64281 | 28301 ft | 380 kts | 356° |
| 2026-05-06 06:16 | 38.60833 | -104.64082 | 26559 ft | 369 kts | 356° |
| 2026-05-06 06:16 | 38.71126 | -104.63865 | 24848 ft | 361 kts | 356° |
| 2026-05-06 06:16 | 38.80985 | -104.63646 | 23117 ft | 357 kts | 356° |
| 2026-05-06 06:16 | 38.90848 | -104.63425 | 21285 ft | 350 kts | 355° |
| 2026-05-06 06:17 | 38.99812 | -104.59970 | 19551 ft | 369 kts | 54° |
| 2026-05-06 06:17 | 38.98025 | -104.48457 | 17882 ft | 348 kts | 151° |
| 2026-05-06 06:17 | 38.89959 | -104.50128 | 16118 ft | 304 kts | 225° |